Weather observations for the past three days for
Pennridge Airport
| Date | Time (edt) | Wind (kph) | Vis. (km) | Weather | Sky Cond. | Temperature (ºC) | Relative Humidity | Wind Chill (°C) | Heat Index (°C) | Pressure | Precipitation (cm) | ||||||
|---|---|---|---|---|---|---|---|---|---|---|---|---|---|---|---|---|---|
| Air | Dwpt | 6 hour | altimeter (cm) | sea level (mb) | 1 hr | 3 hr | 6 hr | ||||||||||
| Max. | Min. | ||||||||||||||||
| 04 | 21:55 | Calm | 16.09 | Fair | CLR | 16 | 5 | 48% | 75.82 | 0.0 | |||||||
| 04 | 21:35 | Calm | 16.09 | Fair | CLR | 15 | 5 | 51% | 75.82 | 0.0 | |||||||
| 04 | 21:15 | Calm | 16.09 | Fair | CLR | 17 | 4 | 42% | 75.79 | 0.0 | |||||||
| 04 | 20:55 | Calm | 16.09 | Fair | CLR | 17 | 4 | 42% | 75.79 | 0.0 | |||||||
| 04 | 20:35 | Calm | 16.09 | Fair | CLR | 18 | 4 | 40% | 75.77 | 0.0 | |||||||
| 04 | 20:15 | Calm | 16.09 | Fair | CLR | 19 | 4 | 37% | 75.77 | 0.0 | |||||||
| 04 | 19:55 | Vrbl 7 | 16.09 | Fair | CLR | 19 | 4 | 37% | 75.77 | 0.0 | |||||||
| 04 | 19:35 | Vrbl 7 G 20 | 16.09 | Fair | CLR | 20 | 4 | 35% | 75.74 | 0.0 | |||||||
| 04 | 19:15 | Vrbl 11 G 26 | 16.09 | Fair | CLR | 20 | 4 | 35% | 75.74 | 0.0 | |||||||
| 04 | 18:55 | Vrbl 9 | 16.09 | Fair | CLR | 21 | 4 | 33% | 75.72 | 0.0 | |||||||
| 04 | 18:35 | Vrbl 11 G 24 | 16.09 | Fair | CLR | 21 | 4 | 33% | 75.72 | 0.0 | |||||||
| 04 | 18:15 | Vrbl 11 G 28 | 16.09 | Fair | CLR | 21 | 4 | 33% | 75.74 | 0.0 | |||||||
| 04 | 17:55 | SW 13 G 28 | 16.09 | Fair | CLR | 21 | 4 | 33% | 75.74 | 0.0 | |||||||
| 04 | 17:35 | Vrbl 11 G 26 | 16.09 | A Few Clouds | FEW080 | 21 | 4 | 33% | 75.74 | 0.0 | |||||||
| 04 | 17:15 | Vrbl 7 | 16.09 | Fair | CLR | 21 | 4 | 33% | 75.74 | 0.0 | |||||||
| 04 | 16:55 | SW 15 G 33 | 16.09 | A Few Clouds | FEW075 | 21 | 4 | 33% | 75.74 | 0.0 | |||||||
| 04 | 16:35 | SW 17 | 16.09 | Mostly Cloudy | BKN075 | 21 | 4 | 33% | 75.74 | 0.0 | |||||||
| 04 | 16:15 | SW 13 G 26 | 16.09 | A Few Clouds | FEW075 | 21 | 3 | 31% | 75.77 | 0.0 | |||||||
| 04 | 15:55 | W 19 G 33 | 16.09 | Fair | CLR | 21 | 4 | 33% | 75.77 | 0.0 | |||||||
| 04 | 15:35 | SW 17 G 31 | 16.09 | Fair | CLR | 21 | 4 | 33% | 75.79 | 0.0 | |||||||
| 04 | 15:15 | S 13 G 26 | 16.09 | Fair | CLR | 21 | 4 | 33% | 75.79 | 0.0 | |||||||
| 04 | 14:55 | SW 19 G 35 | 16.09 | Fair | CLR | 21 | 3 | 31% | 75.82 | 0.0 | |||||||
| 04 | 14:35 | S 17 G 33 | 16.09 | Fair | CLR | 21 | 4 | 33% | 75.82 | 0.0 | |||||||
| 04 | 14:15 | SW 13 G 24 | 16.09 | Fair | CLR | 21 | 3 | 31% | 75.84 | 0.0 | |||||||
| 04 | 13:55 | SW 15 G 33 | 16.09 | Fair | CLR | 20 | 3 | 33% | 75.87 | 0.0 | |||||||
| 04 | 13:35 | SW 17 G 28 | 16.09 | Fair | CLR | 20 | 2 | 30% | 75.9 | 0.0 | |||||||
| 04 | 13:15 | SW 17 G 41 | 16.09 | Fair | CLR | 20 | 2 | 30% | 75.92 | 0.0 | |||||||
| 04 | 12:55 | SW 13 G 31 | 16.09 | Fair | CLR | 19 | 2 | 32% | 75.92 | 0.0 | |||||||
| 04 | 12:35 | W 19 G 30 | 16.09 | Fair | CLR | 19 | 2 | 32% | 75.95 | 0.0 | |||||||
| 04 | 12:15 | SW 15 G 39 | 16.09 | Fair | CLR | 19 | 1 | 30% | 75.97 | 0.0 | |||||||
| 04 | 11:55 | W 13 G 28 | 16.09 | Fair | CLR | 19 | 1 | 30% | 76 | 0.0 | |||||||
| 04 | 11:35 | SW 19 G 30 | 16.09 | Fair | CLR | 18 | 2 | 34% | 76.02 | 0.0 | |||||||
| 04 | 11:15 | W 17 G 28 | 16.09 | Fair | CLR | 18 | 3 | 37% | 76.02 | 0.0 | |||||||
| 04 | 10:55 | SW 13 G 26 | 16.09 | Fair | CLR | 17 | 4 | 42% | 76.02 | 0.0 | |||||||
| 04 | 10:35 | S 11 G 24 | 16.09 | Fair | CLR | 16 | 4 | 45% | 76.05 | 0.0 | |||||||
| 04 | 10:15 | SW 19 | 16.09 | Fair | CLR | 16 | 4 | 45% | 76.05 | 0.0 | |||||||
| 04 | 09:55 | SW 15 | 16.09 | Fair | CLR | 15 | 5 | 51% | 76.05 | 0.0 | |||||||
| 04 | 09:35 | SW 15 | 16.09 | Fair | CLR | 14 | 5 | 55% | 76.05 | 0.0 | |||||||
| 04 | 09:15 | Vrbl 7 G 19 | 16.09 | Fair | CLR | 13 | 4 | 55% | 76.07 | 0.0 | |||||||
| 04 | 08:55 | Vrbl 7 G 19 | 16.09 | Fair | CLR | 12 | 3 | 54% | 76.1 | 0.0 | |||||||
| 04 | 08:35 | Vrbl 9 G 19 | 16.09 | Fair | CLR | 12 | 3 | 54% | 76.1 | 0.0 | |||||||
| 04 | 08:15 | SW 9 | 16.09 | Fair | CLR | 11 | 2 | 54% | 76.1 | 0.0 | |||||||
| 04 | 07:55 | SW 7 | 16.09 | Fair | CLR | 10 | 1 | 54% | 9 | 76.1 | 0.0 | ||||||
| 04 | 07:35 | Vrbl 7 | 16.09 | Fair | CLR | 9 | 0 | 54% | 8 | 76.1 | 0.0 | ||||||
| 04 | 07:15 | Calm | 16.09 | Fair | CLR | 9 | 0 | 54% | 76.1 | 0.0 | |||||||
| 04 | 06:55 | Vrbl 9 | 16.09 | Fair | CLR | 8 | 0 | 57% | 7 | 76.12 | 0.0 | ||||||
| 04 | 06:35 | SW 7 | 16.09 | Fair | CLR | 7 | -1 | 57% | 6 | 76.1 | 0.0 | ||||||
| 04 | 06:15 | Calm | 16.09 | Fair | CLR | 4 | 0 | 75% | 76.1 | 0.0 | |||||||
| 04 | 05:55 | Calm | 16.09 | Fair | CLR | 4 | 0 | 75% | 76.1 | 0.0 | |||||||
| 04 | 05:35 | Calm | 16.09 | Fair | CLR | 3 | 1 | 87% | 76.1 | 0.0 | |||||||
| 04 | 05:15 | Calm | 16.09 | Fair | CLR | 2 | 2 | 100% | 76.1 | 0.0 | |||||||
| 04 | 04:55 | Calm | 16.09 | Fair | CLR | 3 | 1 | 87% | 76.1 | 0.0 | |||||||
| 04 | 04:35 | Calm | 16.09 | Fair | CLR | 4 | 0 | 75% | 76.1 | 0.0 | |||||||
| 04 | 04:15 | Calm | 16.09 | Fair | CLR | 4 | 0 | 75% | 76.1 | 0.0 | |||||||
| 04 | 03:55 | Calm | 16.09 | Fair | CLR | 4 | 0 | 75% | 76.1 | 0.0 | |||||||
| 04 | 03:35 | S 6 | 16.09 | Fair | CLR | 6 | -1 | 61% | 76.1 | 0.0 | |||||||
| 04 | 03:15 | Calm | 16.09 | Fair | CLR | 5 | -1 | 66% | 76.1 | 0.0 | |||||||
| 04 | 02:55 | Calm | 16.09 | Fair | CLR | 6 | -1 | 61% | 76.1 | 0.0 | |||||||
| 04 | 02:35 | Calm | 16.09 | Fair | CLR | 7 | -1 | 57% | 76.1 | 0.0 | |||||||
| 04 | 02:15 | W 7 | 16.09 | Fair | CLR | 8 | -2 | 50% | 7 | 76.07 | 0.0 | ||||||
| 04 | 01:55 | Calm | 16.09 | Fair | CLR | 6 | -1 | 61% | 76.1 | 0.0 | |||||||
| 04 | 01:35 | Calm | 16.09 | Fair | CLR | 7 | -1 | 57% | 76.07 | 0.0 | |||||||
| 04 | 01:15 | Calm | 16.09 | Fair | CLR | 7 | -1 | 57% | 76.1 | 0.0 | |||||||
| 04 | 00:55 | Calm | 16.09 | Fair | CLR | 6 | -1 | 61% | 76.1 | 0.0 | |||||||
| 04 | 00:35 | Calm | 16.09 | Fair | CLR | 6 | -1 | 61% | 76.07 | 0.0 | |||||||
| 04 | 00:15 | Calm | 16.09 | Fair | CLR | 7 | -1 | 57% | 76.07 | 0.0 | |||||||
| 03 | 23:55 | Calm | 16.09 | Fair | CLR | 7 | -1 | 57% | 76.05 | 0.0 | |||||||
| 03 | 23:35 | Calm | 16.09 | Fair | CLR | 8 | -2 | 50% | 76.05 | 0.0 | |||||||
| 03 | 23:15 | Calm | 16.09 | Fair | CLR | 8 | -2 | 50% | 76.02 | 0.0 | |||||||
| 03 | 22:55 | Calm | 16.09 | Fair | CLR | 9 | -2 | 46% | 76.02 | 0.0 | |||||||
| 03 | 22:35 | W 7 | 16.09 | Fair | CLR | 9 | -2 | 46% | 8 | 76.02 | 0.0 | ||||||
| 03 | 22:15 | W 6 | 16.09 | Fair | CLR | 9 | -2 | 46% | 76.02 | 0.0 | |||||||
| 03 | 21:55 | Calm | 16.09 | Fair | CLR | 10 | -2 | 43% | 76.02 | 0.0 | |||||||
| 03 | 21:35 | SW 6 | 16.09 | Fair | CLR | 10 | -2 | 43% | 76.02 | 0.0 | |||||||
| 03 | 21:15 | SW 7 | 16.09 | Fair | CLR | 10 | -2 | 43% | 9 | 76 | 0.0 | ||||||
| 03 | 20:55 | SW 6 | 16.09 | Fair | CLR | 10 | -2 | 43% | 76 | 0.0 | |||||||
| 03 | 20:35 | W 6 | 16.09 | Fair | CLR | 11 | -3 | 38% | 75.97 | 0.0 | |||||||
| 03 | 20:15 | Calm | 16.09 | Fair | CLR | 11 | -2 | 41% | 75.95 | 0.0 | |||||||
| 03 | 19:55 | Calm | 16.09 | Fair | CLR | 13 | -3 | 33% | 75.92 | 0.0 | |||||||
| 03 | 19:35 | W 7 | 16.09 | Fair | CLR | 14 | -3 | 31% | 75.92 | 0.0 | |||||||
| 03 | 19:15 | W 13 G 22 | 16.09 | Fair | CLR | 14 | -4 | 29% | 75.92 | 0.0 | |||||||
| 03 | 18:55 | Calm | 16.09 | A Few Clouds | FEW095 | 15 | -4 | 27% | 75.92 | 0.0 | |||||||
| 03 | 18:35 | W 20 G 33 | 16.09 | A Few Clouds | FEW090 | 15 | -5 | 25% | 75.9 | 0.0 | |||||||
| 03 | 18:15 | W 22 | 16.09 | Fair | CLR | 14 | -4 | 29% | 75.9 | 0.0 | |||||||
| 03 | 17:55 | W 20 G 30 | 16.09 | Fair | CLR | 15 | -5 | 25% | 75.9 | 0.0 | |||||||
| 03 | 17:35 | W 19 | 16.09 | A Few Clouds | FEW085 | 16 | -5 | 23% | 75.9 | 0.0 | |||||||
| 03 | 17:15 | W 17 G 41 | 16.09 | Fair | CLR | 15 | -5 | 25% | 75.87 | 0.0 | |||||||
| 03 | 16:55 | W 22 G 43 | 16.09 | A Few Clouds | FEW090 | 15 | -5 | 25% | 75.9 | 0.0 | |||||||
| 03 | 16:35 | W 20 G 41 | 16.09 | A Few Clouds | FEW080 | 15 | -4 | 27% | 75.9 | 0.0 | |||||||
| 03 | 16:15 | NW 22 G 33 | 16.09 | A Few Clouds | FEW080 | 14 | -5 | 27% | 75.9 | 0.0 | |||||||
| 03 | 15:55 | W 22 G 37 | 16.09 | Partly Cloudy | SCT075 | 14 | -5 | 27% | 75.92 | 0.0 | |||||||
| 03 | 15:35 | W 22 G 39 | 16.09 | Mostly Cloudy | BKN075 | 14 | -5 | 27% | 75.95 | 0.0 | |||||||
| 03 | 14:55 | W 24 G 41 | 16.09 | A Few Clouds | FEW075 | 13 | -5 | 28% | 75.97 | 0.0 | |||||||
| 03 | 14:35 | W 26 G 41 | 16.09 | A Few Clouds | FEW070 | 14 | -4 | 29% | 76 | 0.0 | |||||||
| 03 | 14:15 | W 26 G 43 | 16.09 | A Few Clouds | FEW070 | 13 | -5 | 28% | 75.97 | 0.0 | |||||||
| 03 | 13:35 | W 19 G 37 | 16.09 | Partly Cloudy | SCT070 | 12 | -5 | 30% | 76 | 0.0 | |||||||
| 03 | 13:15 | W 28 G 37 | 16.09 | Partly Cloudy | SCT065 | 12 | -5 | 30% | 76.02 | 0.0 | |||||||
| 03 | 12:55 | W 19 G 35 | 16.09 | Partly Cloudy | SCT065 SCT075 | 12 | -4 | 33% | 76.02 | 0.0 | |||||||
| 03 | 12:35 | NW 17 G 33 | 16.09 | Mostly Cloudy | SCT060 BKN070 | 11 | -4 | 35% | 76.05 | 0.0 | |||||||
| 03 | 12:15 | NW 17 | 16.09 | Mostly Cloudy | BKN055 BKN065 | 10 | -4 | 37% | 8 | 76.05 | 0.0 | ||||||
| 03 | 11:55 | NW 24 G 33 | 16.09 | Mostly Cloudy | BKN060 BKN070 | 11 | -4 | 35% | 76.07 | 0.0 | |||||||
| 03 | 11:35 | NW 17 G 28 | 16.09 | Mostly Cloudy | BKN050 BKN060 | 10 | -3 | 40% | 8 | 76.07 | 0.0 | ||||||
| 03 | 11:15 | NW 22 | 16.09 | Mostly Cloudy | BKN050 BKN065 | 9 | -4 | 40% | 6 | 76.07 | 0.0 | ||||||
| 03 | 10:55 | NW 17 G 39 | 16.09 | Partly Cloudy | SCT050 SCT060 | 9 | -4 | 40% | 7 | 76.07 | 0.0 | ||||||
| 03 | 10:35 | NW 15 G 35 | 16.09 | A Few Clouds | FEW048 FEW055 FEW070 | 9 | -3 | 43% | 7 | 76.07 | 0.0 | ||||||
| 03 | 10:15 | W 22 G 37 | 16.09 | Partly Cloudy | SCT047 SCT055 | 9 | -3 | 43% | 6 | 76.07 | 0.0 | ||||||
| 03 | 09:55 | NW 11 G 33 | 16.09 | Mostly Cloudy | BKN046 BKN055 | 8 | -3 | 46% | 6 | 76.07 | 0.0 | ||||||
| 03 | 09:35 | N 22 G 31 | 16.09 | Mostly Cloudy | BKN044 | 9 | -3 | 43% | 6 | 76.07 | 0.0 | ||||||
| 03 | 09:15 | NW 17 G 35 | 16.09 | Partly Cloudy | SCT042 | 8 | -2 | 50% | 6 | 76.07 | 0.0 | ||||||
| 03 | 08:55 | NW 20 | 16.09 | Fair | CLR | 8 | -2 | 50% | 5 | 76.05 | 0.0 | ||||||
| 03 | 08:35 | NW 13 G 26 | 16.09 | A Few Clouds | FEW080 | 7 | -2 | 53% | 5 | 76.05 | 0.0 | ||||||
| 03 | 08:15 | NW 17 G 30 | 16.09 | Mostly Cloudy | SCT038 BKN080 | 7 | -2 | 53% | 4 | 76.05 | 0.0 | ||||||
| 03 | 07:55 | NW 13 | 16.09 | Overcast | BKN037 OVC080 | 6 | -2 | 57% | 4 | 76.05 | 0.0 | ||||||
| 03 | 07:35 | NW 13 | 16.09 | Overcast | FEW036 OVC080 | 6 | -1 | 61% | 4 | 76.05 | 0.0 | ||||||
| 03 | 07:15 | NW 9 | 16.09 | Overcast | OVC080 | 6 | -2 | 57% | 4 | 76.02 | 0.0 | ||||||
| 03 | 06:55 | Vrbl 11 G 26 | 16.09 | Overcast | OVC080 | 6 | -2 | 57% | 4 | 76 | 0.0 | ||||||
| 03 | 06:35 | NW 15 | 16.09 | Overcast | OVC080 | 6 | -2 | 57% | 3 | 75.97 | 0.0 | ||||||
| 03 | 06:15 | Vrbl 9 | 16.09 | Overcast | SCT075 OVC085 | 6 | -2 | 57% | 4 | 75.95 | 0.0 | ||||||
| 03 | 05:55 | NW 7 | 16.09 | Overcast | BKN070 OVC085 | 6 | -2 | 57% | 5 | 75.92 | 0.0 | ||||||
| 03 | 05:35 | Calm | 16.09 | Overcast | OVC075 | 6 | -2 | 57% | 75.9 | 0.0 | |||||||
| 03 | 05:15 | Vrbl 9 | 16.09 | Overcast | OVC080 | 6 | -2 | 57% | 4 | 75.9 | 0.0 | ||||||
| 03 | 04:55 | NW 7 | 16.09 | Overcast | BKN075 OVC085 | 6 | -3 | 53% | 5 | 75.9 | 0.0 | ||||||
| 03 | 04:35 | Vrbl 7 G 24 | 16.09 | Overcast | OVC080 | 6 | -3 | 53% | 5 | 75.87 | 0.0 | ||||||
| 03 | 04:15 | Vrbl 9 G 20 | 16.09 | Overcast | BKN080 OVC090 | 6 | -2 | 57% | 4 | 75.87 | 0.0 | ||||||
| 03 | 03:55 | NW 11 | 16.09 | Overcast | BKN080 OVC090 | 6 | -2 | 57% | 4 | 75.87 | 0.0 | ||||||
| 03 | 03:35 | Vrbl 9 | 16.09 | Overcast | OVC080 | 6 | -2 | 57% | 4 | 75.84 | 0.0 | ||||||
| 03 | 03:15 | N 6 | 16.09 | Overcast | OVC080 | 7 | -1 | 57% | 75.84 | 0.0 | |||||||
| 03 | 02:55 | NW 7 | 16.09 | Overcast | OVC080 | 7 | -1 | 57% | 6 | 75.84 | 0.0 | ||||||
| 03 | 02:35 | NW 11 | 16.09 | Overcast | OVC075 | 7 | -1 | 57% | 5 | 75.84 | 0.0 | ||||||
| 03 | 02:15 | N 7 | 16.09 | Overcast | FEW060 OVC080 | 8 | -1 | 53% | 7 | 75.87 | 0.0 | ||||||
| 03 | 01:55 | NW 7 | 16.09 | Overcast | SCT060 BKN075 OVC085 | 8 | -2 | 50% | 7 | 75.87 | 0.0 | ||||||
| 03 | 01:35 | NW 9 | 16.09 | Overcast | OVC075 | 8 | -2 | 50% | 7 | 75.9 | 0.0 | ||||||
| 03 | 01:15 | Vrbl 7 | 16.09 | Overcast | OVC075 | 8 | -1 | 53% | 7 | 75.9 | 0.0 | ||||||
| 03 | 00:55 | NW 7 | 16.09 | Overcast | BKN075 OVC085 | 8 | -1 | 53% | 7 | 75.9 | 0.0 | ||||||
| 03 | 00:35 | Calm | 16.09 | Overcast | BKN075 OVC085 | 7 | 0 | 61% | 75.92 | 0.0 | |||||||
| 03 | 00:15 | NW 7 | 16.09 | Overcast | OVC080 | 8 | 0 | 57% | 7 | 75.92 | 0.0 | ||||||
| 02 | 23:55 | NW 7 | 16.09 | Overcast | BKN070 OVC085 | 8 | 0 | 57% | 7 | 75.92 | 0.0 | ||||||
| 02 | 23:35 | NW 7 | 16.09 | Overcast | BKN075 OVC090 | 8 | -1 | 53% | 7 | 75.92 | 0.0 | ||||||
| 02 | 23:15 | NW 7 | 16.09 | Overcast | FEW003 FEW075 OVC085 | 8 | -1 | 53% | 7 | 75.92 | 0.0 | ||||||
| 02 | 22:55 | NW 7 | 16.09 | Overcast | OVC080 | 8 | -1 | 53% | 7 | 75.92 | 0.0 | ||||||
| 02 | 22:35 | NW 7 | 16.09 | Overcast | OVC085 | 9 | -2 | 46% | 8 | 75.95 | 0.0 | ||||||
| 02 | 22:15 | NW 11 | 16.09 | Overcast | OVC090 | 9 | -2 | 46% | 8 | 75.95 | 0.0 | ||||||
| 02 | 21:55 | NW 11 | 16.09 | Mostly Cloudy | BKN090 | 9 | -2 | 46% | 8 | 75.92 | 0.0 | ||||||
| 02 | 21:35 | NW 11 | 16.09 | Fair | CLR | 10 | -2 | 43% | 9 | 75.92 | 0.0 | ||||||
| 02 | 21:15 | NW 15 | 16.09 | Partly Cloudy | SCT080 | 10 | -2 | 43% | 8 | 75.92 | 0.0 | ||||||
| 02 | 20:55 | NW 13 | 16.09 | Mostly Cloudy | BKN085 | 10 | -2 | 43% | 8 | 75.92 | 0.0 | ||||||
| 02 | 20:35 | W 11 | 16.09 | Fair | CLR | 11 | -3 | 38% | 75.9 | 0.0 | |||||||
| 02 | 20:15 | W 11 | 16.09 | Fair | CLR | 11 | -2 | 41% | 75.9 | 0.0 | |||||||
| 02 | 19:55 | NW 11 | 16.09 | Fair | CLR | 11 | -3 | 38% | 75.87 | 0.0 | |||||||
| 02 | 19:35 | NW 9 | 16.09 | Fair | CLR | 11 | -3 | 38% | 75.84 | 0.0 | |||||||
| 02 | 19:15 | NW 11 G 20 | 16.09 | A Few Clouds | FEW085 | 11 | -3 | 38% | 75.87 | 0.0 | |||||||
| 02 | 18:55 | NW 13 | 16.09 | A Few Clouds | FEW080 | 12 | -4 | 33% | 75.87 | 0.0 | |||||||
| 02 | 18:35 | W 15 | 16.09 | Partly Cloudy | SCT080 | 13 | -4 | 31% | 75.87 | 0.0 | |||||||
| 02 | 18:15 | W 15 | 16.09 | Mostly Cloudy | BKN075 | 13 | -3 | 33% | 75.84 | 0.0 | |||||||
| 02 | 17:55 | NW 13 | 16.09 | Mostly Cloudy | BKN070 BKN080 | 15 | -2 | 31% | 75.84 | 0.0 | |||||||
| 02 | 17:35 | NW 7 | 16.09 | Mostly Cloudy | BKN080 | 13 | -2 | 36% | 75.84 | 0.0 | |||||||
| 02 | 17:15 | NW 11 G 24 | 16.09 | Overcast | OVC080 | 13 | -3 | 33% | 75.82 | 0.0 | |||||||
| 02 | 16:55 | NW 9 G 24 | 16.09 | Overcast | OVC075 | 14 | -2 | 33% | 75.82 | 0.0 | |||||||
| 02 | 16:35 | NW 13 | 16.09 | Overcast | OVC075 | 14 | -3 | 31% | 75.82 | 0.0 | |||||||
| 02 | 16:15 | NW 13 | 16.09 | Mostly Cloudy | BKN070 BKN080 | 14 | -3 | 31% | 75.82 | 0.0 | |||||||
| 02 | 15:55 | NW 11 G 24 | 16.09 | Mostly Cloudy | BKN070 BKN080 | 14 | -3 | 31% | 75.84 | 0.0 | |||||||
| 02 | 15:35 | W 13 | 16.09 | Mostly Cloudy | BKN070 BKN080 | 15 | -2 | 31% | 75.84 | 0.0 | |||||||
| 02 | 15:15 | W 15 | 16.09 | Mostly Cloudy | BKN070 | 14 | -2 | 33% | 75.9 | 0.0 | |||||||
| 02 | 14:55 | N 13 | 16.09 | Partly Cloudy | SCT065 SCT075 | 14 | -1 | 36% | 75.9 | 0.0 | |||||||
| 02 | 14:35 | Vrbl 11 | 16.09 | Mostly Cloudy | BKN065 BKN075 | 14 | -2 | 33% | 75.92 | 0.0 | |||||||
| 02 | 14:15 | NW 11 | 16.09 | Overcast | BKN060 OVC070 | 14 | -1 | 36% | 75.95 | 0.0 | |||||||
| 02 | 13:55 | Vrbl 7 G 20 | 16.09 | Mostly Cloudy | BKN065 BKN075 | 13 | -1 | 38% | 75.95 | 0.0 | |||||||
| 02 | 13:35 | W 17 | 16.09 | Partly Cloudy | SCT055 SCT070 | 14 | 0 | 39% | 75.95 | 0.0 | |||||||
| 02 | 13:15 | Vrbl 11 G 20 | 16.09 | Mostly Cloudy | BKN055 BKN070 | 13 | 0 | 41% | 75.95 | 0.0 | |||||||
| 02 | 12:55 | Vrbl 6 | 16.09 | Mostly Cloudy | SCT050 BKN055 | 13 | 1 | 44% | 75.95 | 0.0 | |||||||
| 02 | 12:35 | Vrbl 9 | 16.09 | Partly Cloudy | SCT050 SCT055 | 12 | 0 | 44% | 76 | 0.0 | |||||||
| 02 | 12:15 | Vrbl 9 G 22 | 16.09 | A Few Clouds | FEW050 | 12 | 0 | 44% | 76.02 | 0.0 | |||||||
| 02 | 11:55 | Vrbl 11 G 24 | 16.09 | Fair | CLR | 12 | 1 | 47% | 76 | 0.0 | |||||||
| 02 | 11:35 | N 13 G 22 | 16.09 | Fair | CLR | 12 | 1 | 47% | 76 | 0.0 | |||||||
| 02 | 11:15 | N 13 G 28 | 16.09 | A Few Clouds | FEW043 | 12 | 1 | 47% | 76 | 0.0 | |||||||
| 02 | 10:55 | Vrbl 7 | 16.09 | Fair | CLR | 11 | 1 | 50% | 76 | 0.0 | |||||||
| 02 | 10:15 | NW 15 G 26 | 16.09 | Fair | CLR | 10 | 2 | 58% | 8 | 76.02 | 0.0 | ||||||
| 02 | 09:55 | NW 13 G 24 | 16.09 | A Few Clouds | FEW085 | 10 | 2 | 58% | 8 | 76.02 | 0.0 | ||||||
| 02 | 09:35 | N 13 G 24 | 16.09 | Mostly Cloudy | BKN080 | 9 | 2 | 62% | 7 | 76.02 | 0.0 | ||||||
| 02 | 09:15 | NW 17 | 16.09 | Partly Cloudy | SCT080 SCT090 | 9 | 3 | 66% | 7 | 76.02 | 0.0 | ||||||
| 02 | 08:55 | NW 15 | 16.09 | Mostly Cloudy | BKN085 | 9 | 4 | 71% | 7 | 76 | 0.0 | ||||||
| 02 | 08:35 | N 15 G 28 | 16.09 | Mostly Cloudy | BKN080 | 8 | 4 | 76% | 6 | 76.02 | 0.0 | ||||||
| 02 | 08:15 | Vrbl 11 G 28 | 16.09 | Overcast | OVC080 | 8 | 5 | 82% | 6 | 76 | 0.0 | ||||||
| 02 | 07:55 | NW 13 G 30 | 16.09 | Overcast | FEW029 OVC085 | 8 | 6 | 87% | 6 | 76 | 0.0 | ||||||
| 02 | 07:35 | N 15 G 26 | 16.09 | Overcast | BKN015 BKN029 OVC085 | 8 | 7 | 93% | 6 | 75.97 | 0.0 | ||||||
| 02 | 07:15 | NW 9 G 19 | 16.09 | Overcast | BKN015 OVC095 | 9 | 9 | 100% | 8 | 75.95 | 0.0 | ||||||
| 02 | 06:55 | NW 11 | 16.09 | Mostly Cloudy | BKN018 BKN080 | 8 | 8 | 100% | 6 | 75.95 | 0.0 | ||||||
| 02 | 06:35 | Calm | 14.48 | Overcast | SCT020 BKN075 OVC110 | 7 | 7 | 100% | 75.92 | 0.0 | |||||||
| 02 | 06:15 | Calm | 16.09 | Overcast | FEW023 BKN027 OVC110 | 8 | 8 | 100% | 75.92 | 0.0 | |||||||
| 02 | 05:55 | Calm | 16.09 | Overcast | BKN024 OVC035 | 7 | 7 | 100% | 75.92 | 0.0 | |||||||
| 02 | 05:35 | Calm | 12.87 | Overcast | SCT027 OVC034 | 7 | 7 | 100% | 75.92 | 0.0 | |||||||
| 02 | 05:15 | Calm | 12.87 | Mostly Cloudy | SCT033 BKN070 BKN080 | 7 | 7 | 100% | 75.9 | 0.0 | |||||||
| 02 | 04:55 | Calm | 16.09 | Overcast | BKN075 OVC110 | 8 | 8 | 100% | 75.9 | 0.0 | |||||||
| 02 | 04:35 | Calm | 16.09 | Overcast | FEW031 FEW050 OVC070 | 8 | 8 | 100% | 75.9 | 0.0 | |||||||
| 02 | 04:15 | Calm | 11.27 | Light Rain | FEW028 BKN050 OVC065 | 9 | 9 | 100% | 75.9 | 0.0 | |||||||
| 02 | 03:55 | Calm | 16.09 | Overcast | SCT039 OVC047 | 10 | 8 | 88% | 75.9 | 0.0 | |||||||
| 02 | 03:35 | Calm | 16.09 | Overcast | OVC038 | 10 | 8 | 88% | 75.92 | 0.0 | |||||||
| 02 | 03:15 | Calm | 16.09 | Overcast | BKN040 BKN060 OVC070 | 10 | 7 | 82% | 75.92 | 0.0 | |||||||
| 02 | 02:55 | Vrbl 6 | 16.09 | Overcast | SCT040 BKN060 OVC090 | 10 | 7 | 82% | 75.92 | 0.0 | |||||||
| 02 | 02:35 | NW 15 | 16.09 | Overcast | BKN041 OVC065 | 10 | 7 | 82% | 8 | 75.92 | 0.0 | ||||||
| 02 | 02:15 | NW 9 | 16.09 | Overcast | FEW050 OVC065 | 10 | 8 | 88% | 9 | 75.92 | 0.0 | ||||||
| 02 | 01:55 | Calm | 16.09 | Overcast | BKN050 OVC065 | 11 | 7 | 77% | 75.92 | 0.0 | |||||||
| 02 | 01:35 | SW 7 | 16.09 | Overcast | BKN060 OVC070 | 11 | 7 | 77% | 75.95 | 0.0 | |||||||
| 02 | 01:15 | Calm | 16.09 | Mostly Cloudy | FEW031 SCT060 BKN065 | 10 | 7 | 82% | 75.92 | 0.0 | |||||||
| 02 | 00:55 | W 6 | 16.09 | Overcast | FEW050 BKN065 OVC075 | 11 | 6 | 72% | 75.95 | 0.0 | |||||||
| 02 | 00:35 | Calm | 16.09 | Overcast | OVC065 | 11 | 6 | 72% | 75.95 | 0.0 | |||||||
| 02 | 00:15 | Calm | 16.09 | Overcast | FEW049 BKN065 OVC080 | 11 | 5 | 67% | 75.92 | 0.0 | |||||||
| 01 | 23:55 | Calm | 16.09 | Overcast | FEW049 BKN065 OVC080 | 11 | 5 | 67% | 75.92 | 0.0 | |||||||
| 01 | 23:35 | Calm | 16.09 | Mostly Cloudy | FEW065 SCT075 BKN085 | 12 | 4 | 58% | 75.9 | 0.0 | |||||||
| 01 | 23:15 | Calm | 16.09 | Overcast | FEW060 BKN090 OVC110 | 11 | 4 | 62% | 75.92 | 0.0 | |||||||
| 01 | 22:55 | Calm | 16.09 | Mostly Cloudy | FEW049 SCT060 BKN075 | 11 | 4 | 62% | 75.92 | 0.0 | |||||||
| 01 | 22:35 | Calm | 16.09 | Overcast | FEW048 FEW055 OVC070 | 10 | 7 | 82% | 75.95 | 0.0 | |||||||
| 01 | 22:15 | Calm | 16.09 | Overcast | FEW055 OVC070 | 11 | 5 | 67% | 75.95 | 0.0 | |||||||
| Date | Time (edt) | Wind (kph) | Vis. (km) | Weather | Sky Cond. | Air | Dwpt | Max. | Min. | Relative Humidity | Wind Chill (°C) | Heat Index (°C) | altimeter (cm) | sea level (mb) | 1 hr | 3 hr | 6 hr |
| 6 hour | |||||||||||||||||
| Temperature (ºC) | Pressure | Precipitation (cm) | |||||||||||||||